Terminal Aerodrome Forecast
Issued by NWS Central Illinois

Home | Current Version | Previous Version | Text Only | Print | Product List | Glossary On
Versions: 1 2 3 4 5 6 7 8 9 10 11 12 13
695
FTUS43 KILX 071351 AAA
TAFSPI
TAF AMD
KSPI 071351Z 0714/0812 20012KT P6SM BKN120
     FM071500 22015G24KT P6SM BKN120
     FM071800 26012G20KT P6SM BKN120
     FM080000 27010KT P6SM SCT020 OVC040
     FM080900 29012KT 4SM -SN BR OVC020=

USA.gov is the U.S. government's official web portal to all federal, state and local government web resources and services.